createdAt,value
2017-12-24T00:02:39.625Z,2.93
2017-12-24T00:07:40.484Z,2.60
2017-12-24T00:12:41.291Z,2.63
2017-12-24T00:23:32.062Z,2.53
2017-12-24T00:28:32.881Z,4.13
2017-12-24T00:33:33.710Z,2.43
2017-12-24T00:38:34.566Z,2.27
2017-12-24T00:43:35.401Z,4.60
2017-12-24T00:48:36.183Z,3.20
2017-12-24T00:53:36.990Z,2.40
2017-12-24T00:58:37.820Z,2.80
2017-12-24T01:03:38.635Z,2.40
2017-12-24T01:25:02.407Z,2.23
2017-12-24T01:30:03.209Z,1.90
2017-12-24T01:35:04.011Z,1.60
2017-12-24T01:40:04.805Z,1.90
2017-12-24T01:45:05.631Z,2.10
2017-12-24T01:50:06.451Z,1.90
2017-12-24T01:55:07.249Z,2.27
2017-12-24T02:00:08.157Z,1.73
2017-12-24T02:05:13.049Z,2.53
2017-12-24T02:10:13.909Z,1.87
2017-12-24T02:15:14.705Z,2.47
2017-12-24T02:20:15.559Z,1.60
2017-12-24T02:25:16.372Z,2.73
2017-12-24T02:30:17.148Z,1.70
2017-12-24T02:35:17.975Z,1.47
2017-12-24T02:40:18.825Z,1.43
2017-12-24T02:45:19.621Z,1.40
2017-12-24T02:50:21.021Z,1.50
2017-12-24T02:55:22.486Z,1.90
2017-12-24T03:00:23.295Z,1.60
2017-12-24T03:05:24.127Z,2.20
2017-12-24T03:10:24.937Z,1.50
2017-12-24T03:15:25.738Z,1.20
2017-12-24T03:20:26.537Z,1.40
2017-12-24T03:25:27.313Z,1.40
2017-12-24T03:30:28.122Z,1.90
2017-12-24T03:35:28.926Z,1.70
2017-12-24T03:40:29.726Z,1.30
2017-12-24T03:45:30.523Z,1.70
2017-12-24T04:06:55.071Z,1.40
2017-12-24T04:11:55.862Z,1.50
2017-12-24T04:16:56.654Z,1.67
2017-12-24T04:21:57.454Z,1.60
2017-12-24T04:26:58.247Z,1.20
2017-12-24T04:31:59.021Z,1.60
2017-12-24T04:36:59.829Z,1.67
2017-12-24T04:42:00.641Z,1.57
2017-12-24T04:47:01.408Z,1.83
2017-12-24T04:52:02.212Z,2.30
2017-12-24T04:57:03.025Z,1.63
2017-12-24T05:02:03.809Z,1.30
2017-12-24T05:07:15.010Z,1.80
2017-12-24T05:12:15.841Z,1.97
2017-12-24T05:17:16.626Z,2.13
2017-12-24T05:22:17.462Z,2.47
2017-12-24T05:27:18.269Z,2.27
2017-12-24T05:32:19.096Z,2.23
2017-12-24T05:37:19.905Z,2.20
2017-12-24T05:42:20.741Z,2.33
2017-12-24T05:47:21.525Z,1.90
2017-12-24T05:52:22.379Z,2.87
2017-12-24T05:57:23.185Z,2.40
2017-12-24T06:02:24.025Z,2.50
2017-12-24T06:07:24.850Z,2.13
2017-12-24T06:12:25.681Z,2.47
2017-12-24T06:17:26.529Z,2.03
2017-12-24T06:22:27.320Z,2.93
2017-12-24T06:27:28.128Z,2.20
2017-12-24T06:32:28.913Z,3.10
2017-12-24T06:37:29.727Z,2.17
2017-12-24T06:42:30.535Z,2.73
2017-12-24T06:47:31.325Z,3.07
2017-12-24T07:08:55.069Z,4.90
2017-12-24T07:13:55.897Z,6.17
2017-12-24T07:18:56.722Z,8.07
2017-12-24T07:23:57.517Z,8.07
2017-12-24T07:28:58.321Z,7.60
2017-12-24T07:33:59.114Z,8.67
2017-12-24T07:38:59.949Z,8.73
2017-12-24T07:44:00.757Z,8.07
2017-12-24T07:49:01.559Z,10.50
2017-12-24T07:54:02.381Z,9.67
2017-12-24T07:59:03.176Z,9.30
2017-12-24T08:04:03.985Z,10.90
2017-12-24T08:09:04.801Z,9.10
2017-12-24T08:14:05.603Z,10.77
2017-12-24T08:19:06.430Z,10.13
2017-12-24T08:24:07.273Z,10.70
2017-12-24T08:29:08.070Z,10.50
2017-12-24T08:34:08.864Z,9.53
2017-12-24T08:39:09.694Z,11.80
2017-12-24T08:44:24.509Z,12.67
2017-12-24T08:49:25.458Z,10.77
2017-12-24T08:54:33.209Z,11.13
2017-12-24T08:59:34.095Z,9.63
2017-12-24T09:04:34.951Z,12.77
2017-12-24T09:09:35.805Z,11.17
2017-12-24T09:14:36.614Z,10.73
2017-12-24T09:19:37.477Z,11.20
2017-12-24T09:24:46.533Z,11.27
2017-12-24T09:29:47.335Z,9.80
2017-12-24T09:34:48.141Z,9.07
2017-12-24T09:39:48.982Z,10.77
2017-12-24T09:44:49.821Z,8.00
2017-12-24T10:00:52.205Z,9.50
2017-12-24T10:17:12.746Z,7.47
2017-12-24T10:22:13.551Z,7.23
2017-12-24T10:27:14.459Z,6.80
2017-12-24T10:32:15.258Z,7.60
2017-12-24T10:37:16.078Z,6.07
2017-12-24T10:42:16.975Z,6.17
2017-12-24T10:47:17.799Z,7.57
2017-12-24T10:52:18.659Z,7.57
2017-12-24T10:57:19.477Z,6.67
2017-12-24T11:02:20.323Z,6.13
2017-12-24T11:07:21.273Z,5.03
2017-12-24T11:12:41.978Z,4.70
2017-12-24T11:28:40.023Z,4.47
2017-12-24T12:12:38.626Z,3.03
2017-12-24T12:17:39.490Z,2.73
2017-12-24T12:22:40.369Z,3.10
2017-12-24T12:27:41.169Z,3.63
2017-12-24T12:32:47.628Z,3.60
2017-12-24T12:37:48.457Z,3.33
2017-12-24T12:59:37.553Z,2.90
2017-12-24T13:10:21.776Z,4.43
2017-12-24T13:15:22.622Z,2.90
2017-12-24T13:20:23.422Z,3.03
2017-12-24T13:25:24.261Z,2.83
2017-12-24T13:30:38.657Z,2.50
2017-12-24T13:35:39.825Z,2.67
2017-12-24T13:40:40.682Z,3.27
2017-12-24T13:51:19.306Z,3.23
2017-12-24T13:56:20.155Z,4.07
2017-12-24T14:01:21.027Z,2.50
2017-12-24T14:06:46.131Z,5.03
2017-12-24T14:11:47.005Z,3.33
2017-12-24T14:22:38.749Z,4.23
2017-12-24T14:27:46.695Z,4.97
2017-12-24T14:32:47.574Z,7.93
2017-12-24T14:37:48.472Z,5.60
2017-12-24T14:42:55.693Z,5.23
2017-12-24T14:47:56.526Z,5.30
2017-12-24T14:52:57.330Z,10.83
2017-12-24T15:14:31.177Z,5.30
2017-12-24T15:19:32.064Z,6.00
2017-12-24T15:24:36.039Z,4.70
2017-12-24T15:29:42.866Z,5.93
2017-12-24T15:34:43.724Z,8.90
2017-12-24T15:39:44.513Z,6.30
2017-12-24T15:44:45.327Z,5.90
2017-12-24T15:49:46.158Z,5.70
2017-12-24T15:54:46.981Z,3.90
2017-12-24T16:43:30.791Z,3.47
2017-12-24T16:48:54.017Z,3.83
2017-12-24T16:59:29.017Z,4.20
2017-12-24T17:04:29.870Z,4.20
2017-12-24T17:09:30.682Z,4.20
2017-12-24T17:14:49.243Z,5.47
2017-12-24T17:19:50.044Z,2.90
2017-12-24T17:24:50.908Z,3.03
2017-12-24T17:46:15.379Z,3.77
2017-12-24T17:56:49.750Z,3.73
2017-12-24T18:01:50.573Z,3.60
2017-12-24T18:06:51.382Z,3.53
2017-12-24T18:11:52.157Z,4.57
2017-12-24T18:16:53.017Z,3.83
2017-12-24T18:21:53.804Z,4.13
2017-12-24T18:26:54.635Z,3.80
2017-12-24T18:31:55.445Z,4.20
2017-12-24T18:36:56.544Z,3.43
2017-12-24T18:41:57.378Z,3.80
2017-12-24T18:46:58.174Z,3.30
2017-12-24T18:51:58.976Z,4.30
2017-12-24T18:57:16.858Z,4.23
2017-12-24T19:02:17.684Z,5.10
2017-12-24T19:07:18.509Z,3.50
2017-12-24T19:12:19.351Z,3.20
2017-12-24T19:17:20.164Z,3.50
2017-12-24T19:22:20.977Z,5.63
2017-12-24T19:27:21.768Z,4.10
2017-12-24T19:32:22.586Z,3.67
2017-12-24T19:37:23.432Z,3.47
2017-12-24T19:42:24.279Z,4.50
2017-12-24T19:47:25.136Z,4.23
2017-12-24T19:52:25.930Z,5.17
2017-12-24T20:03:04.487Z,5.00
2017-12-24T20:08:05.348Z,4.70
2017-12-24T20:29:30.132Z,5.93
2017-12-24T20:50:55.560Z,4.80
2017-12-24T21:01:24.284Z,4.40
2017-12-24T21:06:25.225Z,5.57
2017-12-24T21:11:26.027Z,5.07
2017-12-24T21:16:37.685Z,7.53
2017-12-24T21:21:38.564Z,6.23
2017-12-24T21:26:39.368Z,5.83
2017-12-24T21:31:40.207Z,5.57
2017-12-24T21:36:41.004Z,5.20
2017-12-24T21:41:41.850Z,5.80
2017-12-24T21:46:42.725Z,5.73
2017-12-24T22:13:35.549Z,6.30
2017-12-24T22:18:36.359Z,5.70
2017-12-24T22:23:37.176Z,5.17
2017-12-24T22:28:44.893Z,5.63
2017-12-24T22:33:45.796Z,6.07
2017-12-24T22:38:46.665Z,6.80
2017-12-24T22:43:47.580Z,8.60
2017-12-24T22:48:51.863Z,6.37
2017-12-24T22:53:52.739Z,5.80
2017-12-24T22:58:53.544Z,6.20
2017-12-24T23:03:54.388Z,6.60
2017-12-24T23:08:55.222Z,6.23
2017-12-24T23:13:56.098Z,6.90
2017-12-24T23:24:37.510Z,12.00
2017-12-24T23:29:38.337Z,8.17
2017-12-24T23:34:39.163Z,9.73
2017-12-24T23:39:40.016Z,8.20
2017-12-24T23:44:40.792Z,9.03
2017-12-24T23:49:41.636Z,8.27
2017-12-24T23:54:42.507Z,9.43
2017-12-24T23:59:43.289Z,7.93
